createdAt,value
2023-05-19T00:01:01.544Z,1078.22
2023-05-19T00:03:34.048Z,1291.65
2023-05-19T00:06:06.210Z,1276.95
2023-05-19T00:08:37.907Z,1181.88
2023-05-19T00:11:09.226Z,1189.82
2023-05-19T00:13:42.291Z,1028.25
2023-05-19T00:16:14.865Z,1104.90
2023-05-19T00:18:45.178Z,1323.90
2023-05-19T00:21:15.375Z,1272.95
2023-05-19T00:23:45.649Z,1204.95
2023-05-19T00:26:15.978Z,1289.50
2023-05-19T00:28:48.636Z,1455.68
2023-05-19T00:31:18.833Z,1209.93
2023-05-19T00:33:48.964Z,1331.78
2023-05-19T00:36:19.098Z,1257.30
2023-05-19T00:38:49.165Z,1282.15
2023-05-19T00:41:19.273Z,1139.95
2023-05-19T00:43:52.301Z,1237.72
2023-05-19T00:46:23.218Z,1338.80
2023-05-19T00:48:53.404Z,1311.45
2023-05-19T00:51:23.730Z,1400.70
2023-05-19T00:53:54.215Z,1358.93
2023-05-19T00:56:24.590Z,1466.07
2023-05-19T00:58:58.353Z,1301.32
2023-05-19T01:01:28.727Z,1393.47
2023-05-19T01:03:59.774Z,1408.78
2023-05-19T01:06:30.643Z,1309.22
2023-05-19T01:09:00.864Z,1310.43
2023-05-19T01:11:30.916Z,1430.22
2023-05-19T01:14:03.721Z,1377.07
2023-05-19T01:16:39.989Z,1356.78
2023-05-19T01:19:35.357Z,1546.72
2023-05-19T01:22:43.028Z,1491.75
2023-05-19T01:25:56.257Z,1296.13
2023-05-19T01:29:01.023Z,1331.28
2023-05-19T01:31:34.416Z,1513.07
2023-05-19T01:34:06.476Z,1681.43
2023-05-19T01:36:37.528Z,1467.40
2023-05-19T01:39:08.107Z,1503.60
2023-05-19T01:41:38.643Z,1708.32
2023-05-19T01:44:09.185Z,1900.25
2023-05-19T01:46:42.804Z,1442.55
2023-05-19T01:49:12.960Z,1638.57
2023-05-19T01:51:44.315Z,1511.60
2023-05-19T01:54:14.455Z,1657.55
2023-05-19T01:57:00.347Z,1754.80
2023-05-19T01:59:44.293Z,1640.82
2023-05-19T02:02:29.858Z,1659.00
2023-05-19T02:05:08.917Z,1555.90
2023-05-19T02:07:47.981Z,1657.47
2023-05-19T02:10:25.738Z,1811.22
2023-05-19T02:12:57.280Z,1836.03
2023-05-19T02:15:29.613Z,1541.07
2023-05-19T02:18:04.704Z,1863.22
2023-05-19T02:20:35.250Z,1623.07
2023-05-19T02:23:05.390Z,1790.57
2023-05-19T02:25:35.630Z,1817.28
2023-05-19T02:28:06.917Z,1679.28
2023-05-19T02:30:37.077Z,1776.75
2023-05-19T02:33:11.608Z,1712.10
2023-05-19T02:35:41.710Z,1603.13
2023-05-19T02:38:11.765Z,1650.45
2023-05-19T02:40:41.886Z,1572.97
2023-05-19T02:43:12.193Z,1741.22
2023-05-19T02:45:42.458Z,1699.18
2023-05-19T02:48:15.182Z,1815.28
2023-05-19T02:50:45.269Z,1727.10
2023-05-19T02:53:15.360Z,1793.80
2023-05-19T02:55:45.976Z,1623.28
2023-05-19T02:58:16.037Z,1715.63
2023-05-19T03:00:46.936Z,1836.95
2023-05-19T03:03:20.029Z,1635.55
2023-05-19T03:05:50.246Z,1521.75
2023-05-19T03:08:20.353Z,1709.93
2023-05-19T03:10:51.151Z,1615.78
2023-05-19T03:13:21.197Z,1766.70
2023-05-19T03:15:51.650Z,1785.25
2023-05-19T03:18:24.944Z,1689.22
2023-05-19T03:20:55.779Z,1771.40
2023-05-19T03:23:26.745Z,1544.85
2023-05-19T03:25:56.969Z,1569.40
2023-05-19T03:28:27.469Z,1754.05
2023-05-19T03:30:57.590Z,1756.25
2023-05-19T03:33:30.847Z,1556.07
2023-05-19T03:36:01.079Z,1633.68
2023-05-19T03:38:31.194Z,1642.53
2023-05-19T03:41:01.261Z,1632.03
2023-05-19T03:43:31.363Z,1777.68
2023-05-19T03:46:02.433Z,1815.93
2023-05-19T03:48:35.241Z,1498.47
2023-05-19T03:51:05.301Z,1507.25
2023-05-19T03:53:35.397Z,1566.97
2023-05-19T03:56:05.656Z,1831.65
2023-05-19T03:58:37.220Z,1550.32
2023-05-19T04:01:07.462Z,1584.93
2023-05-19T04:03:40.294Z,1794.50
2023-05-19T04:06:11.301Z,1578.07
2023-05-19T04:08:42.072Z,1583.72
2023-05-19T04:11:12.404Z,1643.40
2023-05-19T04:13:42.526Z,1559.10
2023-05-19T04:16:12.838Z,1510.30
2023-05-19T04:18:46.655Z,1444.25
2023-05-19T04:21:16.787Z,1315.32
2023-05-19T04:23:46.924Z,1349.57
2023-05-19T04:26:18.212Z,1274.60
2023-05-19T04:28:48.526Z,1155.40
2023-05-19T04:31:18.729Z,1176.10
2023-05-19T04:33:53.633Z,1050.57
2023-05-19T04:36:24.235Z,1124.93
2023-05-19T04:38:55.055Z,928.13
2023-05-19T04:41:25.176Z,1022.53
2023-05-19T04:43:57.651Z,957.42
2023-05-19T04:46:30.480Z,708.17
2023-05-19T04:49:04.060Z,798.30
2023-05-19T04:51:35.978Z,545.35
2023-05-19T04:54:06.576Z,206.38
2023-05-19T04:56:36.677Z,780.83
2023-05-19T04:59:07.093Z,498.98
2023-05-19T05:01:40.503Z,383.55
2023-05-19T05:04:13.400Z,274.67
2023-05-19T05:06:48.008Z,185.32
2023-05-19T05:09:19.045Z,121.47
2023-05-19T05:11:50.135Z,98.80
2023-05-19T05:14:21.449Z,232.95
2023-05-19T05:16:53.865Z,7.13
2023-05-19T05:19:27.629Z,20.65
2023-05-19T05:21:58.884Z,11.85
2023-05-19T05:24:30.302Z,10.52
2023-05-19T05:27:00.389Z,12.77
2023-05-19T05:29:30.503Z,9.18
2023-05-19T05:32:00.614Z,5.28
2023-05-19T05:34:33.456Z,6.25
2023-05-19T05:37:03.548Z,11.40
2023-05-19T05:39:34.095Z,10.60
2023-05-19T05:42:04.181Z,8.23
2023-05-19T05:44:35.865Z,9.75
2023-05-19T05:47:07.285Z,6.90
2023-05-19T05:49:42.130Z,9.65
2023-05-19T05:52:14.996Z,6.40
2023-05-19T05:54:46.543Z,7.45
2023-05-19T05:57:17.541Z,5.22
2023-05-19T05:59:48.084Z,7.43
2023-05-19T06:02:18.626Z,6.68
2023-05-19T06:04:51.710Z,9.02
2023-05-19T06:07:22.160Z,7.78
2023-05-19T06:09:52.663Z,6.78
2023-05-19T06:12:23.158Z,6.10
2023-05-19T06:14:53.632Z,7.82
2023-05-19T06:17:24.043Z,7.32
2023-05-19T06:19:57.071Z,7.07
2023-05-19T06:22:28.309Z,4.90
2023-05-19T06:24:58.786Z,2.80
2023-05-19T06:27:29.267Z,6.00
2023-05-19T06:29:59.709Z,7.40
2023-05-19T06:32:30.233Z,7.03
2023-05-19T06:35:03.551Z,6.63
2023-05-19T06:37:34.064Z,5.57
2023-05-19T06:40:05.859Z,6.82
2023-05-19T06:42:36.306Z,6.45
2023-05-19T06:45:07.085Z,5.18
2023-05-19T06:47:37.625Z,5.45
2023-05-19T06:50:11.706Z,9.05
2023-05-19T06:52:42.178Z,5.57
2023-05-19T06:55:12.790Z,5.90
2023-05-19T06:57:43.226Z,5.25
2023-05-19T07:00:20.647Z,5.30
2023-05-19T07:02:52.676Z,2.42
2023-05-19T07:05:26.086Z,5.57
2023-05-19T07:07:56.515Z,4.75
2023-05-19T07:10:27.180Z,9.43
2023-05-19T07:12:58.304Z,5.53
2023-05-19T07:15:28.757Z,5.63
2023-05-19T07:17:59.266Z,5.53
2023-05-19T07:20:32.615Z,7.03
2023-05-19T07:23:03.159Z,5.90
2023-05-19T07:25:33.631Z,6.00
2023-05-19T07:28:04.085Z,5.90
2023-05-19T07:30:34.888Z,10.85
2023-05-19T07:33:07.119Z,10.00
2023-05-19T07:35:40.292Z,7.45
2023-05-19T07:38:10.775Z,4.88
2023-05-19T07:40:41.205Z,5.93
2023-05-19T07:43:11.663Z,5.90
2023-05-19T07:45:42.541Z,2.72
2023-05-19T07:48:13.133Z,9.23
2023-05-19T07:50:46.202Z,5.72
2023-05-19T07:53:16.913Z,6.13
2023-05-19T07:55:49.630Z,6.57
2023-05-19T07:58:20.830Z,8.75
2023-05-19T08:00:51.254Z,4.43
2023-05-19T08:03:23.657Z,6.95
2023-05-19T08:05:56.880Z,7.53
2023-05-19T08:08:27.338Z,6.05
2023-05-19T08:10:57.766Z,7.45
2023-05-19T08:13:28.250Z,11.90
2023-05-19T08:16:00.156Z,11.52
2023-05-19T08:18:31.048Z,4.53
2023-05-19T08:21:03.893Z,6.70
2023-05-19T08:23:33.985Z,7.10
2023-05-19T08:26:04.268Z,7.35
2023-05-19T08:28:34.459Z,6.43
2023-05-19T08:31:04.679Z,6.25
2023-05-19T08:33:34.789Z,5.53
2023-05-19T08:36:08.910Z,6.90
2023-05-19T08:38:38.967Z,6.43
2023-05-19T08:41:09.151Z,7.72
2023-05-19T08:43:39.608Z,4.32
2023-05-19T08:46:10.011Z,6.53
2023-05-19T08:48:42.476Z,7.88
2023-05-19T08:51:24.163Z,6.15
2023-05-19T08:53:57.870Z,6.97
2023-05-19T08:56:28.033Z,5.07
2023-05-19T08:59:00.609Z,6.05
2023-05-19T09:01:31.868Z,5.97
2023-05-19T09:04:02.179Z,8.40
2023-05-19T09:06:35.517Z,4.88
2023-05-19T09:09:06.986Z,6.93
2023-05-19T09:11:38.010Z,6.47
2023-05-19T09:14:08.236Z,3.20
2023-05-19T09:16:38.455Z,3.22
2023-05-19T09:19:08.895Z,5.10
2023-05-19T09:21:42.089Z,5.78
2023-05-19T09:24:13.225Z,3.42
2023-05-19T09:26:45.565Z,3.30
2023-05-19T09:29:16.413Z,3.25
2023-05-19T09:31:53.027Z,4.68
2023-05-19T09:34:25.198Z,2.75
2023-05-19T09:37:00.012Z,5.05
2023-05-19T09:39:30.120Z,6.93
2023-05-19T09:42:00.656Z,4.43
2023-05-19T09:44:31.515Z,5.45
2023-05-19T09:47:02.418Z,4.60
2023-05-19T09:49:34.088Z,5.07
2023-05-19T09:52:10.002Z,5.25
2023-05-19T09:54:43.241Z,4.50
2023-05-19T09:57:13.701Z,3.17
2023-05-19T09:59:45.073Z,3.35
2023-05-19T10:02:21.485Z,6.43
2023-05-19T10:04:52.052Z,3.22
2023-05-19T10:07:27.537Z,6.22
2023-05-19T10:09:58.769Z,6.90
2023-05-19T10:12:29.750Z,4.65
2023-05-19T10:15:00.438Z,2.58
2023-05-19T10:17:31.917Z,4.43
2023-05-19T10:20:03.906Z,6.28
2023-05-19T10:22:37.042Z,3.88
2023-05-19T10:25:08.369Z,3.40
2023-05-19T10:27:43.264Z,3.75
2023-05-19T10:30:19.205Z,2.30
2023-05-19T10:32:52.774Z,2.85
2023-05-19T10:35:50.454Z,3.35
2023-05-19T10:38:32.519Z,2.47
2023-05-19T10:41:10.777Z,3.83
2023-05-19T10:44:01.209Z,3.38
2023-05-19T10:46:33.236Z,2.63
2023-05-19T10:49:03.366Z,2.00
2023-05-19T10:51:34.730Z,3.40
2023-05-19T10:54:14.406Z,3.60
2023-05-19T10:56:47.750Z,3.08
2023-05-19T10:59:37.397Z,4.22
2023-05-19T11:02:08.220Z,5.15
2023-05-19T11:04:51.110Z,2.83
2023-05-19T11:07:24.707Z,4.45
2023-05-19T11:09:57.910Z,4.43
2023-05-19T11:12:28.031Z,5.75
2023-05-19T11:14:58.502Z,2.22
2023-05-19T11:17:29.141Z,4.43
2023-05-19T11:20:00.923Z,5.15
2023-05-19T11:22:31.667Z,3.08
2023-05-19T11:25:04.395Z,2.25
2023-05-19T11:27:38.344Z,4.38
2023-05-19T11:30:17.958Z,3.00
2023-05-19T11:32:51.074Z,4.93
2023-05-19T11:35:22.861Z,4.70
2023-05-19T11:37:53.861Z,3.47
2023-05-19T11:40:27.302Z,5.28
2023-05-19T11:42:57.396Z,5.45
2023-05-19T11:45:31.890Z,6.68
2023-05-19T11:48:03.571Z,5.10
2023-05-19T11:50:35.492Z,2.42
2023-05-19T11:53:05.962Z,5.68
2023-05-19T11:55:45.178Z,2.72
2023-05-19T11:58:15.994Z,5.18
2023-05-19T12:00:48.690Z,3.92
2023-05-19T12:03:20.847Z,4.45
2023-05-19T12:05:52.466Z,3.22
2023-05-19T12:08:23.288Z,8.27
2023-05-19T12:10:56.456Z,3.15
2023-05-19T12:13:26.658Z,5.18
2023-05-19T12:15:56.946Z,3.25
2023-05-19T12:18:32.127Z,4.68
2023-05-19T12:21:02.314Z,4.15
2023-05-19T12:23:33.134Z,3.25
2023-05-19T12:26:06.291Z,3.15
2023-05-19T12:28:36.869Z,3.95
2023-05-19T12:31:07.115Z,5.03
2023-05-19T12:33:37.611Z,4.78
2023-05-19T12:36:09.708Z,5.47
2023-05-19T12:38:42.415Z,2.97
2023-05-19T12:41:16.975Z,5.55
2023-05-19T12:46:18.257Z,5.97
2023-05-19T12:48:49.286Z,8.35
2023-05-19T12:51:22.976Z,4.78
2023-05-19T12:53:53.701Z,3.97
2023-05-19T12:56:29.828Z,6.88
2023-05-19T12:59:00.145Z,3.40
2023-05-19T13:01:32.445Z,5.55
2023-05-19T13:04:05.409Z,9.20
2023-05-19T13:06:36.329Z,5.20
2023-05-19T13:09:07.405Z,2.72
2023-05-19T13:11:40.632Z,4.10
2023-05-19T13:14:10.717Z,5.57
2023-05-19T13:16:41.137Z,5.95
2023-05-19T13:19:23.933Z,3.17
2023-05-19T13:21:55.519Z,2.93
2023-05-19T13:24:25.810Z,8.15
2023-05-19T13:26:58.616Z,3.95
2023-05-19T13:29:28.736Z,3.92
2023-05-19T13:32:01.578Z,3.92
2023-05-19T13:34:33.289Z,8.75
2023-05-19T13:37:03.885Z,4.82
2023-05-19T13:39:34.099Z,4.93
2023-05-19T13:42:12.836Z,5.00
2023-05-19T13:44:44.469Z,3.42
2023-05-19T13:47:14.827Z,7.03
2023-05-19T13:49:45.517Z,3.60
2023-05-19T13:52:15.799Z,5.60
2023-05-19T13:54:46.090Z,2.60
2023-05-19T13:57:18.961Z,3.80
2023-05-19T14:00:00.983Z,4.80
2023-05-19T14:02:34.131Z,3.75
2023-05-19T14:05:04.422Z,6.97
2023-05-19T14:07:35.579Z,5.35
2023-05-19T14:10:07.019Z,6.18
2023-05-19T14:12:55.155Z,7.57
2023-05-19T14:15:30.255Z,4.90
2023-05-19T14:18:00.389Z,6.32
2023-05-19T14:20:30.635Z,3.47
2023-05-19T14:23:00.813Z,3.67
2023-05-19T14:25:30.876Z,5.22
2023-05-19T14:28:04.045Z,7.38
2023-05-19T14:30:34.315Z,3.20
2023-05-19T14:33:04.725Z,3.47
2023-05-19T14:35:34.791Z,3.67
2023-05-19T14:38:04.880Z,9.88
2023-05-19T14:40:35.215Z,3.30
2023-05-19T14:43:08.065Z,8.80
2023-05-19T14:45:38.235Z,5.70
2023-05-19T14:48:08.956Z,5.05
2023-05-19T14:50:39.090Z,5.18
2023-05-19T14:53:09.369Z,10.38
2023-05-19T14:55:39.528Z,4.13
2023-05-19T14:58:27.558Z,4.57
2023-05-19T15:01:01.867Z,6.28
2023-05-19T15:03:32.113Z,4.07
2023-05-19T15:06:02.378Z,5.55
2023-05-19T15:08:32.493Z,4.97
2023-05-19T15:11:02.535Z,4.15
2023-05-19T15:13:35.246Z,8.13
2023-05-19T15:16:16.817Z,6.15
2023-05-19T15:18:48.390Z,2.53
2023-05-19T15:21:18.678Z,3.85
2023-05-19T15:23:48.820Z,6.35
2023-05-19T15:26:18.967Z,4.03
2023-05-19T15:28:51.623Z,4.40
2023-05-19T15:31:22.577Z,3.05
2023-05-19T15:33:52.694Z,4.03
2023-05-19T15:36:22.904Z,10.80
2023-05-19T15:38:52.977Z,3.63
2023-05-19T15:41:23.074Z,3.15
2023-05-19T15:43:56.210Z,2.80
2023-05-19T15:46:26.517Z,3.92
2023-05-19T15:48:56.646Z,3.20
2023-05-19T15:51:27.454Z,2.67
2023-05-19T15:53:57.543Z,4.22
2023-05-19T15:56:27.597Z,4.78
2023-05-19T15:59:00.490Z,9.48
2023-05-19T16:01:30.625Z,6.78
2023-05-19T16:04:02.418Z,10.32
2023-05-19T16:06:32.713Z,11.35
2023-05-19T16:09:02.829Z,5.40
2023-05-19T16:11:32.978Z,4.38
2023-05-19T16:14:05.668Z,3.90
2023-05-19T16:16:35.846Z,8.48
2023-05-19T16:19:05.984Z,6.40
2023-05-19T16:21:36.300Z,5.50
2023-05-19T16:24:06.833Z,7.60
2023-05-19T16:26:37.188Z,6.43
2023-05-19T16:29:10.345Z,7.35
2023-05-19T16:31:40.500Z,5.45
2023-05-19T16:34:10.603Z,6.88
2023-05-19T16:36:40.684Z,5.55
2023-05-19T16:39:10.979Z,6.45
2023-05-19T16:41:41.065Z,6.28
2023-05-19T16:44:14.782Z,3.72
2023-05-19T16:46:44.862Z,4.60
2023-05-19T16:49:15.034Z,4.40
2023-05-19T16:51:46.728Z,4.30
2023-05-19T16:54:17.593Z,5.10
2023-05-19T16:56:47.673Z,4.85
2023-05-19T16:59:20.387Z,3.83
2023-05-19T17:01:50.476Z,6.05
2023-05-19T17:04:20.569Z,7.63
2023-05-19T17:06:51.186Z,5.05
2023-05-19T17:09:25.244Z,4.45
2023-05-19T17:11:55.494Z,7.40
2023-05-19T17:14:28.250Z,2.65
2023-05-19T17:16:58.357Z,5.13
2023-05-19T17:19:28.626Z,6.57
2023-05-19T17:21:58.750Z,8.80
2023-05-19T17:24:29.082Z,3.90
2023-05-19T17:26:59.140Z,6.20
2023-05-19T17:29:31.895Z,4.78
2023-05-19T17:32:02.049Z,5.50
2023-05-19T17:34:32.183Z,5.13
2023-05-19T17:37:02.273Z,6.43
2023-05-19T17:39:32.356Z,7.35
2023-05-19T17:42:02.811Z,7.35
2023-05-19T17:44:35.461Z,6.80
2023-05-19T17:47:07.430Z,8.65
2023-05-19T17:49:37.694Z,10.35
2023-05-19T17:52:09.328Z,7.32
2023-05-19T17:54:40.299Z,8.00
2023-05-19T17:57:15.054Z,8.20
2023-05-19T17:59:48.600Z,6.68
2023-05-19T18:02:19.645Z,6.57
2023-05-19T18:04:50.740Z,5.82
2023-05-19T18:07:22.562Z,7.40
2023-05-19T18:09:55.040Z,8.25
2023-05-19T18:12:25.280Z,7.10
2023-05-19T18:14:57.930Z,5.40
2023-05-19T18:17:28.118Z,7.22
2023-05-19T18:19:58.251Z,7.95
2023-05-19T18:22:28.766Z,10.10
2023-05-19T18:25:00.177Z,5.47
2023-05-19T18:27:31.577Z,4.75
2023-05-19T18:30:04.318Z,8.00
2023-05-19T18:32:34.581Z,9.10
2023-05-19T18:35:04.968Z,5.43
2023-05-19T18:37:35.263Z,5.07
2023-05-19T18:40:05.378Z,6.50
2023-05-19T18:42:35.908Z,5.35
2023-05-19T18:45:10.395Z,6.43
2023-05-19T18:50:12.193Z,6.95
2023-05-19T18:52:43.079Z,4.95
2023-05-19T18:55:13.650Z,6.50
2023-05-19T18:57:43.735Z,5.07
2023-05-19T19:00:20.486Z,7.38
2023-05-19T19:02:50.605Z,8.13
2023-05-19T19:05:21.038Z,5.68
2023-05-19T19:07:52.620Z,9.32
2023-05-19T19:10:23.135Z,9.52
2023-05-19T19:12:53.297Z,13.32
2023-05-19T19:15:26.207Z,9.35
2023-05-19T19:17:57.024Z,5.88
2023-05-19T19:20:27.132Z,7.28
2023-05-19T19:22:58.886Z,8.48
2023-05-19T19:25:28.962Z,6.78
2023-05-19T19:27:59.027Z,9.00
2023-05-19T19:30:32.842Z,8.23
2023-05-19T19:33:04.645Z,10.07
2023-05-19T19:35:35.509Z,6.70
2023-05-19T19:38:05.713Z,11.23
2023-05-19T19:40:36.243Z,7.68
2023-05-19T19:43:06.911Z,10.77
2023-05-19T19:45:39.849Z,11.15
2023-05-19T19:48:10.516Z,8.77
2023-05-19T19:50:40.923Z,6.65
2023-05-19T19:53:11.358Z,9.32
2023-05-19T19:55:41.682Z,9.50
2023-05-19T19:58:11.917Z,10.40
2023-05-19T20:00:44.610Z,21.38
2023-05-19T20:03:14.781Z,9.02
2023-05-19T20:05:45.015Z,12.65
2023-05-19T20:08:16.133Z,9.70
2023-05-19T20:10:46.321Z,11.07
2023-05-19T20:13:19.154Z,10.18
2023-05-19T20:15:52.134Z,10.27
2023-05-19T20:18:22.220Z,9.10
2023-05-19T20:20:52.315Z,8.20
2023-05-19T20:23:22.366Z,8.45
2023-05-19T20:26:10.346Z,8.80
2023-05-19T20:28:42.386Z,9.52
2023-05-19T20:31:15.058Z,6.30
2023-05-19T20:33:45.135Z,7.43
2023-05-19T20:36:15.287Z,11.00
2023-05-19T20:38:45.392Z,9.00
2023-05-19T20:41:15.472Z,9.02
2023-05-19T20:43:46.601Z,8.63
2023-05-19T20:46:19.352Z,8.35
2023-05-19T20:48:49.466Z,11.77
2023-05-19T20:51:19.594Z,11.82
2023-05-19T20:53:49.650Z,13.07
2023-05-19T20:56:19.759Z,9.02
2023-05-19T20:58:49.827Z,10.35
2023-05-19T21:01:22.585Z,7.97
2023-05-19T21:03:52.842Z,10.10
2023-05-19T21:06:22.899Z,10.10
2023-05-19T21:08:53.148Z,9.55
2023-05-19T21:11:23.226Z,7.75
2023-05-19T21:13:54.998Z,9.23
2023-05-19T21:16:27.800Z,9.80
2023-05-19T21:18:57.973Z,12.18
2023-05-19T21:21:28.324Z,8.35
2023-05-19T21:23:58.493Z,8.88
2023-05-19T21:26:29.182Z,10.48
2023-05-19T21:28:59.244Z,10.10
2023-05-19T21:31:32.099Z,18.52
2023-05-19T21:34:02.288Z,8.13
2023-05-19T21:36:32.424Z,8.13
2023-05-19T21:39:02.515Z,7.35
2023-05-19T21:41:33.069Z,8.85
2023-05-19T21:44:03.733Z,9.38
2023-05-19T21:46:36.488Z,9.23
2023-05-19T21:49:08.711Z,9.27
2023-05-19T21:51:38.845Z,8.25
2023-05-19T21:54:09.009Z,8.02
2023-05-19T21:56:39.040Z,8.10
2023-05-19T21:59:09.320Z,9.05
2023-05-19T22:01:42.506Z,7.38
2023-05-19T22:04:13.697Z,10.23
2023-05-19T22:06:43.767Z,9.93
2023-05-19T22:09:14.060Z,9.35
2023-05-19T22:11:44.162Z,10.10
2023-05-19T22:14:14.321Z,8.93
2023-05-19T22:16:47.738Z,10.05
2023-05-19T22:19:18.126Z,10.82
2023-05-19T22:21:48.343Z,8.88
2023-05-19T22:24:19.285Z,14.65
2023-05-19T22:26:49.348Z,8.25
2023-05-19T22:29:20.245Z,7.97
2023-05-19T22:31:52.935Z,7.45
2023-05-19T22:34:23.160Z,9.00
2023-05-19T22:36:53.306Z,7.32
2023-05-19T22:39:23.432Z,7.75
2023-05-19T22:41:53.462Z,8.18
2023-05-19T22:44:23.534Z,6.45
2023-05-19T22:46:56.241Z,8.65
2023-05-19T22:49:27.515Z,8.80
2023-05-19T22:51:57.575Z,8.25
2023-05-19T22:54:27.768Z,10.13
2023-05-19T22:56:57.826Z,9.23
2023-05-19T22:59:27.873Z,8.73
2023-05-19T23:02:00.751Z,9.65
2023-05-19T23:04:31.001Z,8.35
2023-05-19T23:07:01.136Z,10.00
2023-05-19T23:09:34.025Z,8.77
2023-05-19T23:12:04.085Z,55.75
2023-05-19T23:14:34.450Z,8.32
2023-05-19T23:17:07.661Z,17.13
2023-05-19T23:19:37.795Z,12.38
2023-05-19T23:22:08.892Z,13.52
2023-05-19T23:24:39.799Z,12.00
2023-05-19T23:27:09.881Z,17.23
2023-05-19T23:29:39.927Z,9.50
2023-05-19T23:32:12.718Z,44.30
2023-05-19T23:34:42.784Z,74.78
2023-05-19T23:37:12.886Z,35.50
2023-05-19T23:39:43.397Z,144.73
2023-05-19T23:42:13.512Z,66.82
2023-05-19T23:44:43.596Z,247.23
2023-05-19T23:47:16.218Z,409.08
2023-05-19T23:49:46.531Z,239.02
2023-05-19T23:52:16.587Z,132.70
2023-05-19T23:54:46.709Z,366.15
2023-05-19T23:57:16.750Z,220.43
2023-05-19T23:59:46.999Z,187.43
